createdAt,value
2022-09-12T00:01:45.559Z,101220.94
2022-09-12T00:04:51.571Z,101226.63
2022-09-12T00:07:57.228Z,101231.50
2022-09-12T00:11:07.646Z,101227.38
2022-09-12T00:14:18.944Z,101227.88
2022-09-12T00:17:24.114Z,101226.56
2022-09-12T00:20:29.644Z,101225.25
2022-09-12T00:23:35.201Z,101225.50
2022-09-12T00:26:40.585Z,101230.66
2022-09-12T00:29:46.340Z,101231.66
2022-09-12T00:32:51.964Z,101222.31
2022-09-12T00:35:57.580Z,101225.50
2022-09-12T00:39:04.263Z,101215.59
2022-09-12T00:42:12.467Z,101220.41
2022-09-12T00:45:28.105Z,101223.41
2022-09-12T00:48:44.725Z,101218.75
2022-09-12T00:51:59.791Z,101219.25
2022-09-12T00:55:13.490Z,101225.59
2022-09-12T00:58:44.004Z,101221.84
2022-09-12T01:01:52.395Z,101218.06
2022-09-12T01:04:57.974Z,101222.06
2022-09-12T01:08:05.000Z,101215.81
2022-09-12T01:11:13.312Z,101220.44
2022-09-12T01:14:20.597Z,101219.13
2022-09-12T01:17:37.956Z,101214.53
2022-09-12T01:21:07.263Z,101211.06
2022-09-12T01:24:42.262Z,101204.84
2022-09-12T01:28:24.529Z,101207.84
2022-09-12T01:31:41.679Z,101202.75
2022-09-12T01:34:55.159Z,101200.84
2022-09-12T01:38:14.076Z,101196.81
2022-09-12T01:41:59.652Z,101196.88
2022-09-12T01:45:12.115Z,101198.50
2022-09-12T01:48:27.101Z,101190.31
2022-09-12T01:51:40.491Z,101192.19
2022-09-12T01:54:56.447Z,101191.41
2022-09-12T01:58:15.052Z,101198.97
2022-09-12T02:01:25.353Z,101205.41
2022-09-12T02:04:36.414Z,101201.34
2022-09-12T02:07:53.530Z,101195.72
2022-09-12T02:11:08.406Z,101188.69
2022-09-12T02:14:24.549Z,101191.13
2022-09-12T02:17:32.699Z,101187.09
2022-09-12T02:20:49.005Z,101190.06
2022-09-12T02:24:00.125Z,101186.00
2022-09-12T02:27:26.432Z,101181.44
2022-09-12T02:30:40.349Z,101191.16
2022-09-12T02:33:50.343Z,101186.78
2022-09-12T02:37:13.525Z,101183.03
2022-09-12T02:40:19.595Z,101177.91
2022-09-12T02:43:25.533Z,101171.97
2022-09-12T02:46:41.620Z,101175.50
2022-09-12T02:49:47.778Z,101181.69
2022-09-12T02:52:55.889Z,101175.72
2022-09-12T02:56:01.773Z,101173.06
2022-09-12T02:59:09.863Z,101173.06
2022-09-12T03:02:44.581Z,101165.47
2022-09-12T03:06:00.306Z,101168.75
2022-09-12T03:09:21.639Z,101173.84
2022-09-12T03:12:45.402Z,101169.28
2022-09-12T03:16:23.201Z,101177.38
2022-09-12T03:19:57.987Z,101173.59
2022-09-12T03:23:11.938Z,101169.56
2022-09-12T03:26:26.155Z,101169.63
2022-09-12T03:29:32.545Z,101169.38
2022-09-12T03:32:50.831Z,101172.59
2022-09-12T03:35:56.841Z,101169.91
2022-09-12T03:39:02.447Z,101171.78
2022-09-12T03:42:07.927Z,101170.44
2022-09-12T03:45:13.561Z,101176.38
2022-09-12T03:48:19.320Z,101173.72
2022-09-12T03:51:24.712Z,101177.47
2022-09-12T03:54:30.323Z,101167.69
2022-09-12T03:57:35.738Z,101173.06
2022-09-12T04:00:43.093Z,101172.56
2022-09-12T04:03:52.197Z,101161.81
2022-09-12T04:06:57.901Z,101169.31
2022-09-12T04:10:04.080Z,101172.63
2022-09-12T04:13:09.740Z,101174.72
2022-09-12T04:16:16.923Z,101173.16
2022-09-12T04:19:23.957Z,101176.41
2022-09-12T04:22:30.492Z,101184.25
2022-09-12T04:25:35.800Z,101176.97
2022-09-12T04:28:41.720Z,101171.00
2022-09-12T04:31:46.924Z,101168.06
2022-09-12T04:34:52.984Z,101172.63
2022-09-12T04:37:58.847Z,101175.88
2022-09-12T04:41:14.707Z,101168.31
2022-09-12T04:44:19.988Z,101169.69
2022-09-12T04:47:25.112Z,101179.41
2022-09-12T04:50:30.691Z,101174.28
2022-09-12T04:53:38.069Z,101183.19
2022-09-12T04:56:47.328Z,101188.59
2022-09-12T04:59:52.533Z,101184.53
2022-09-12T05:02:58.160Z,101189.38
2022-09-12T05:06:04.123Z,101189.38
2022-09-12T05:09:14.589Z,101183.72
2022-09-12T05:12:20.384Z,101178.84
2022-09-12T05:15:26.568Z,101185.06
2022-09-12T05:18:36.893Z,101195.28
2022-09-12T05:21:42.444Z,101199.06
2022-09-12T05:24:50.746Z,101194.47
2022-09-12T05:27:57.072Z,101206.84
2022-09-12T05:31:05.880Z,101208.50
2022-09-12T05:34:12.043Z,101212.25
2022-09-12T05:37:17.993Z,101216.28
2022-09-12T05:40:23.528Z,101221.94
2022-09-12T05:43:28.970Z,101220.06
2022-09-12T05:46:40.171Z,101227.59
2022-09-12T05:49:48.422Z,101229.78
2022-09-12T05:52:55.355Z,101227.84
2022-09-12T05:56:13.036Z,101231.91
2022-09-12T05:59:21.707Z,101235.69
2022-09-12T06:02:26.894Z,101236.22
2022-09-12T06:05:33.700Z,101234.31
2022-09-12T06:08:40.372Z,101238.06
2022-09-12T06:11:47.063Z,101241.56
2022-09-12T06:14:52.689Z,101242.63
2022-09-12T06:17:58.437Z,101240.41
2022-09-12T06:21:09.073Z,101241.38
2022-09-12T06:24:14.422Z,101244.84
2022-09-12T06:27:20.104Z,101244.63
2022-09-12T06:30:25.684Z,101231.44
2022-09-12T06:33:33.690Z,101239.78
2022-09-12T06:36:43.442Z,101235.63
2022-09-12T06:39:49.159Z,101238.47
2022-09-12T06:42:54.825Z,101234.94
2022-09-12T06:46:13.303Z,101231.88
2022-09-12T06:49:18.945Z,101232.34
2022-09-12T06:52:24.166Z,101229.16
2022-09-12T06:55:30.373Z,101223.44
2022-09-12T06:58:36.281Z,101225.28
2022-09-12T07:01:42.262Z,101223.75
2022-09-12T07:04:50.212Z,101226.06
2022-09-12T07:07:56.285Z,101230.44
2022-09-12T07:11:20.419Z,101229.22
2022-09-12T07:14:26.382Z,101230.47
2022-09-12T07:17:32.385Z,101232.25
2022-09-12T07:20:38.670Z,101234.91
2022-09-12T07:23:45.251Z,101238.84
2022-09-12T07:26:50.935Z,101241.47
2022-09-12T07:29:56.529Z,101241.16
2022-09-12T07:33:02.384Z,101237.94
2022-09-12T07:36:12.073Z,101241.63
2022-09-12T07:39:17.777Z,101234.66
2022-09-12T07:42:23.633Z,101237.22
2022-09-12T07:45:30.276Z,101241.94
2022-09-12T07:48:36.995Z,101249.59
2022-09-12T07:51:42.713Z,101252.53
2022-09-12T07:54:48.628Z,101246.50
2022-09-12T07:57:54.448Z,101252.81
2022-09-12T08:01:14.101Z,101254.06
2022-09-12T08:04:19.703Z,101249.31
2022-09-12T08:07:25.560Z,101242.25
2022-09-12T08:10:31.202Z,101256.56
2022-09-12T08:13:38.533Z,101245.34
2022-09-12T08:16:44.877Z,101256.94
2022-09-12T08:19:50.594Z,101260.97
2022-09-12T08:22:56.918Z,101262.25
2022-09-12T08:26:06.383Z,101256.72
2022-09-12T08:29:12.547Z,101264.97
2022-09-12T08:32:18.025Z,101256.88
2022-09-12T08:35:23.576Z,101256.38
2022-09-12T08:38:30.321Z,101258.91
2022-09-12T08:41:49.624Z,101255.97
2022-09-12T08:45:19.341Z,101258.13
2022-09-12T08:48:24.847Z,101262.09
2022-09-12T08:51:34.754Z,101259.56
2022-09-12T08:54:40.938Z,101260.50
2022-09-12T08:57:47.589Z,101259.88
2022-09-12T09:01:14.888Z,101266.47
2022-09-12T09:04:57.938Z,101264.09
2022-09-12T09:08:31.399Z,101261.09
2022-09-12T09:11:43.180Z,101254.22
2022-09-12T09:15:02.622Z,101258.59
2022-09-12T09:18:23.881Z,101258.50
2022-09-12T09:21:32.034Z,101253.88
2022-09-12T09:24:43.205Z,101254.00
2022-09-12T09:28:02.317Z,101260.63
2022-09-12T09:31:17.461Z,101261.22
2022-09-12T09:34:29.612Z,101262.22
2022-09-12T09:37:43.675Z,101250.59
2022-09-12T09:40:52.259Z,101260.63
2022-09-12T09:43:59.011Z,101258.75
2022-09-12T09:47:05.620Z,101258.38
2022-09-12T09:50:17.463Z,101254.47
2022-09-12T09:53:57.585Z,101248.38
2022-09-12T09:57:04.165Z,101248.41
2022-09-12T10:00:27.599Z,101251.78
2022-09-12T10:03:41.086Z,101248.44
2022-09-12T10:06:47.017Z,101251.94
2022-09-12T10:10:15.494Z,101252.28
2022-09-12T10:13:31.395Z,101250.84
2022-09-12T10:16:53.567Z,101252.47
2022-09-12T10:20:19.933Z,101246.69
2022-09-12T10:23:41.219Z,101244.09
2022-09-12T10:26:56.919Z,101254.69
2022-09-12T10:30:15.127Z,101243.78
2022-09-12T10:33:21.021Z,101246.38
2022-09-12T10:36:36.444Z,101241.53
2022-09-12T10:39:50.954Z,101242.78
2022-09-12T10:43:00.119Z,101235.13
2022-09-12T10:46:27.659Z,101236.72
2022-09-12T10:49:40.454Z,101232.34
2022-09-12T10:52:46.339Z,101228.59
2022-09-12T10:56:10.114Z,101232.94
2022-09-12T10:59:56.005Z,101229.44
2022-09-12T11:03:37.617Z,101224.31
2022-09-12T11:06:53.837Z,101221.69
2022-09-12T11:10:23.547Z,101223.78
2022-09-12T11:13:56.063Z,101216.47
2022-09-12T11:17:16.805Z,101220.16
2022-09-12T11:20:25.650Z,101214.28
2022-09-12T11:23:42.636Z,101215.78
2022-09-12T11:27:04.890Z,101212.34
2022-09-12T11:30:11.138Z,101217.22
2022-09-12T12:27:46.288Z,101163.56
2022-09-12T12:30:54.681Z,101169.53
2022-09-12T12:34:05.653Z,101167.44
2022-09-12T12:37:19.802Z,101161.03
2022-09-12T12:40:27.433Z,101161.44
2022-09-12T12:43:32.722Z,101155.91
2022-09-12T12:46:39.092Z,101154.84
2022-09-12T12:49:56.344Z,101154.47
2022-09-12T12:53:06.111Z,101151.00
2022-09-12T12:56:28.684Z,101143.72
2022-09-12T12:59:34.864Z,101142.75
2022-09-12T13:02:50.674Z,101144.63
2022-09-12T13:06:02.936Z,101136.88
2022-09-12T13:09:39.855Z,101134.22
2022-09-12T13:12:48.090Z,101132.63
2022-09-12T13:15:54.096Z,101128.47
2022-09-12T13:19:08.242Z,101126.97
2022-09-12T13:22:13.302Z,101119.38
2022-09-12T13:25:20.348Z,101114.03
2022-09-12T13:28:26.802Z,101109.06
2022-09-12T13:31:33.063Z,101106.50
2022-09-12T13:34:56.118Z,101100.13
2022-09-12T13:38:37.417Z,101091.91
2022-09-12T13:41:54.715Z,101082.56
2022-09-12T13:45:22.251Z,101083.59
2022-09-12T13:48:28.296Z,101078.28
2022-09-12T13:51:34.754Z,101087.06
2022-09-12T13:54:41.115Z,101086.44
2022-09-12T13:57:55.940Z,101080.72
2022-09-12T14:01:10.251Z,101082.59
2022-09-12T14:04:41.757Z,101066.13
2022-09-12T14:08:05.134Z,101065.63
2022-09-12T14:11:12.254Z,101071.09
2022-09-12T14:14:34.436Z,101060.66
2022-09-12T14:17:40.407Z,101059.00
2022-09-12T14:20:47.567Z,101054.84
2022-09-12T14:23:55.369Z,101052.13
2022-09-12T14:27:01.421Z,101047.56
2022-09-12T14:30:28.732Z,101038.47
2022-09-12T14:33:56.674Z,101034.16
2022-09-12T14:37:07.119Z,101030.88
2022-09-12T14:40:24.158Z,101033.16
2022-09-12T14:43:29.636Z,101029.38
2022-09-12T14:46:39.934Z,101026.78
2022-09-12T14:49:46.005Z,101025.22
2022-09-12T14:53:21.697Z,101023.28
2022-09-12T14:56:45.451Z,101009.56
2022-09-12T14:59:51.135Z,101013.53
2022-09-12T15:03:23.929Z,101015.13
2022-09-12T15:06:38.117Z,101008.06
2022-09-12T15:09:47.272Z,101000.78
2022-09-12T15:13:12.444Z,101005.47
2022-09-12T15:16:17.955Z,101006.25
2022-09-12T15:19:23.555Z,100997.31
2022-09-12T15:22:28.780Z,101014.78
2022-09-12T15:25:34.194Z,101002.59
2022-09-12T15:28:40.153Z,100997.78
2022-09-12T15:31:47.877Z,100994.91
2022-09-12T15:34:55.334Z,100995.81
2022-09-12T15:38:00.960Z,100995.97
2022-09-12T15:41:19.687Z,100994.81
2022-09-12T15:44:24.993Z,100988.31
2022-09-12T15:47:30.319Z,101003.59
2022-09-12T15:50:36.418Z,101000.63
2022-09-12T15:53:42.377Z,100984.94
2022-09-12T15:56:47.712Z,100988.81
2022-09-12T15:59:53.406Z,100987.22
2022-09-12T16:02:58.679Z,100979.34
2022-09-12T16:06:04.777Z,100986.53
2022-09-12T16:09:14.802Z,100980.47
2022-09-12T16:12:21.674Z,100983.06
2022-09-12T16:15:26.978Z,100984.09
2022-09-12T16:18:32.260Z,100979.25
2022-09-12T16:21:38.569Z,100973.25
2022-09-12T16:24:44.115Z,100976.97
2022-09-12T16:27:50.365Z,100971.28
2022-09-12T16:31:00.607Z,100972.63
2022-09-12T16:34:06.928Z,100977.84
2022-09-12T16:37:12.285Z,100972.97
2022-09-12T16:40:19.819Z,100972.38
2022-09-12T16:43:25.643Z,100971.91
2022-09-12T16:46:31.211Z,100969.03
2022-09-12T16:49:36.959Z,100966.94
2022-09-12T16:52:42.244Z,100964.00
2022-09-12T16:55:51.563Z,100963.88
2022-09-12T16:58:57.109Z,100961.94
2022-09-12T17:02:03.706Z,100967.81
2022-09-12T17:05:10.012Z,100954.56
2022-09-12T17:08:15.346Z,100967.72
2022-09-12T17:11:27.204Z,100964.41
2022-09-12T17:14:32.255Z,100963.41
2022-09-12T17:17:37.356Z,100968.31
2022-09-12T17:20:42.695Z,100977.47
2022-09-12T17:23:48.392Z,100973.28
2022-09-12T17:26:55.010Z,100976.34
2022-09-12T17:30:00.874Z,100967.84
2022-09-12T17:33:06.805Z,100977.03
2022-09-12T17:36:18.569Z,100975.63
2022-09-12T17:39:24.432Z,100973.22
2022-09-12T17:42:30.566Z,100972.59
2022-09-12T17:45:36.545Z,100978.06
2022-09-12T17:48:42.449Z,100974.22
2022-09-12T17:51:48.947Z,100979.34
2022-09-12T17:54:54.835Z,100979.34
2022-09-12T17:58:02.983Z,100982.53
2022-09-12T18:01:34.652Z,100987.22
2022-09-12T18:04:42.046Z,100986.25
2022-09-12T18:07:47.720Z,100994.75
2022-09-12T18:10:53.879Z,100994.25
2022-09-12T18:14:00.252Z,101002.59
2022-09-12T18:17:08.593Z,101003.69
2022-09-12T18:20:14.437Z,101004.81
2022-09-12T18:23:20.394Z,101003.56
2022-09-12T18:26:28.499Z,101008.66
2022-09-12T18:29:34.429Z,101009.94
2022-09-12T18:32:39.889Z,101013.47
2022-09-12T18:35:45.361Z,101024.91
2022-09-12T18:38:52.586Z,101027.78
2022-09-12T18:41:58.376Z,101026.84
2022-09-12T18:45:04.430Z,101028.09
2022-09-12T18:48:09.731Z,101026.66
2022-09-12T18:51:18.599Z,101035.47
2022-09-12T18:54:24.422Z,101032.91
2022-09-12T18:57:35.328Z,101031.88
2022-09-12T19:00:41.865Z,101037.94
2022-09-12T19:03:48.842Z,101037.28
2022-09-12T19:06:54.422Z,101040.81
2022-09-12T19:10:00.629Z,101036.81
2022-09-12T19:13:05.802Z,101038.41
2022-09-12T19:16:14.731Z,101039.69
2022-09-12T19:19:21.721Z,101046.53
2022-09-12T19:22:28.030Z,101054.09
2022-09-12T19:25:33.647Z,101046.16
2022-09-12T19:28:39.399Z,101048.22
2022-09-12T19:31:46.979Z,101055.88
2022-09-12T19:34:52.475Z,101059.28
2022-09-12T19:37:58.100Z,101050.38
2022-09-12T19:41:07.416Z,101055.28
2022-09-12T19:44:13.928Z,101056.00
2022-09-12T19:47:19.353Z,101068.19
2022-09-12T19:50:25.275Z,101067.47
2022-09-12T19:53:32.062Z,101074.25
2022-09-12T19:56:37.644Z,101073.75
2022-09-12T19:59:43.503Z,101069.94
2022-09-12T20:02:53.387Z,101071.16
2022-09-12T20:06:26.257Z,101069.75
2022-09-12T20:09:31.854Z,101073.22
2022-09-12T20:12:37.422Z,101077.72
2022-09-12T20:15:43.217Z,101072.09
2022-09-12T20:18:49.788Z,101071.41
2022-09-12T20:21:55.448Z,101071.19
2022-09-12T20:25:01.272Z,101080.94
2022-09-12T20:28:07.215Z,101076.91
2022-09-12T20:31:16.718Z,101081.25
2022-09-12T20:34:22.797Z,101079.13
2022-09-12T20:37:30.570Z,101083.84
2022-09-12T20:40:35.884Z,101081.03
2022-09-12T20:43:41.363Z,101086.38
2022-09-12T20:46:47.170Z,101078.25
2022-09-12T20:49:53.080Z,101078.31
2022-09-12T20:52:59.505Z,101077.94
2022-09-12T20:56:07.248Z,101081.53
2022-09-12T20:59:13.514Z,101089.38
2022-09-12T21:02:19.437Z,101090.59
2022-09-12T21:05:25.298Z,101082.66
2022-09-12T21:08:32.967Z,101089.56
2022-09-12T21:11:38.485Z,101089.19
2022-09-12T21:14:43.965Z,101088.66
2022-09-12T21:17:49.775Z,101093.00
2022-09-12T21:20:56.957Z,101089.56
2022-09-12T21:24:03.986Z,101099.34
2022-09-12T21:27:09.179Z,101094.59
2022-09-12T21:30:15.005Z,101102.00
2022-09-12T21:33:21.375Z,101089.03
2022-09-12T21:36:27.302Z,101092.88
2022-09-12T21:39:32.497Z,101095.09
2022-09-12T21:42:38.106Z,101094.19
2022-09-12T21:45:43.965Z,101091.97
2022-09-12T21:48:49.841Z,101095.84
2022-09-12T21:51:55.588Z,101094.25
2022-09-12T21:55:01.297Z,101093.72
2022-09-12T21:58:07.295Z,101098.97
2022-09-12T22:01:13.417Z,101095.00
2022-09-12T22:04:19.100Z,101091.72
2022-09-12T22:07:25.442Z,101089.88
2022-09-12T22:10:31.089Z,101099.03
2022-09-12T22:13:39.498Z,101100.00
2022-09-12T22:16:45.592Z,101093.13
2022-09-12T22:19:51.251Z,101090.19
2022-09-12T22:23:15.507Z,101082.47
2022-09-12T22:26:21.068Z,101089.00
2022-09-12T22:29:27.085Z,101082.19
2022-09-12T22:32:36.598Z,101080.09
2022-09-12T22:35:42.725Z,101086.94
2022-09-12T22:38:48.774Z,101078.97
2022-09-12T22:41:54.454Z,101073.25
2022-09-12T22:45:00.019Z,101072.22
2022-09-12T22:48:08.564Z,101075.03
2022-09-12T22:51:14.861Z,101065.66
2022-09-12T22:54:20.060Z,101071.59
2022-09-12T22:57:26.212Z,101076.13
2022-09-12T23:00:32.404Z,101075.25
2022-09-12T23:03:38.232Z,101077.44
2022-09-12T23:06:43.611Z,101075.81
2022-09-12T23:09:49.059Z,101077.75
2022-09-12T23:12:55.642Z,101078.31
2022-09-12T23:16:03.337Z,101087.41
2022-09-12T23:19:09.083Z,101080.09
2022-09-12T23:22:14.561Z,101075.63
2022-09-12T23:25:23.928Z,101079.41
2022-09-12T23:28:30.022Z,101079.06
2022-09-12T23:31:35.349Z,101072.66
2022-09-12T23:34:40.790Z,101074.19
2022-09-12T23:37:47.146Z,101076.28
2022-09-12T23:40:52.732Z,101076.88
2022-09-12T23:43:58.989Z,101073.81
2022-09-12T23:47:04.674Z,101071.53
2022-09-12T23:50:10.574Z,101074.44
2022-09-12T23:53:18.275Z,101066.53
2022-09-12T23:56:23.560Z,101068.44
2022-09-12T23:59:31.421Z,101064.09
